EDNY

Friedrichshafen Airport

Friedrichshafen, Germany
METAR EDNY 250050Z AUTO VRB02KT 9999 // NCD 12/11 Q1019
Observed Flight Rules
May-25 @ 00:50 UTC (33 minutes ago) Visual Flight Rules
Wind Visibility Clouds
Variable at 2 knots 10,000+ meters
  • Clear skies
Temperatures Readings
Current 12°C / 54°F
Dewpoint 11°C / 52°F
Humidity 94%
Altimeter 30.09" Hg
Pressure 1019 hPa
Elevation 424
METAR EDNY 250050Z AUTO VRB02KT 9999 // NCD 12/11 Q1019
Observed Flight Rules
May-25 @ 00:50 UTC
(33 minutes ago)
VFR
Wind Visibility
Variable at 2 knots 10,000+ meters
Clouds
  • Clear skies
Temperature Dewpoint
12°C / 54°F 11°C / 52°F
Humidity Altimeter Pressure
94% 30.09" Hg 1019 hPa